createdAt,value
2018-03-27T00:00:18.968Z,39.70
2018-03-27T00:01:19.015Z,36.00
2018-03-27T00:02:19.033Z,40.50
2018-03-27T00:03:19.007Z,44.60
2018-03-27T00:04:19.016Z,42.40
2018-03-27T00:05:19.035Z,43.80
2018-03-27T00:06:19.048Z,42.80
2018-03-27T00:07:19.051Z,39.80
2018-03-27T00:08:19.089Z,42.00
2018-03-27T00:09:19.111Z,40.40
2018-03-27T00:10:19.096Z,40.60
2018-03-27T00:11:19.132Z,45.60
2018-03-27T00:12:19.113Z,42.40
2018-03-27T00:13:19.145Z,41.30
2018-03-27T00:14:19.148Z,37.90
2018-03-27T00:15:19.160Z,42.30
2018-03-27T00:16:19.186Z,43.00
2018-03-27T00:17:19.194Z,45.40
2018-03-27T00:18:19.187Z,39.40
2018-03-27T00:19:19.199Z,39.20
2018-03-27T00:20:19.217Z,37.60
2018-03-27T00:21:19.231Z,43.10
2018-03-27T00:22:19.257Z,46.90
2018-03-27T00:23:19.274Z,43.90
2018-03-27T00:24:19.271Z,41.90
2018-03-27T00:25:19.289Z,43.30
2018-03-27T00:26:19.292Z,38.60
2018-03-27T00:27:19.304Z,43.60
2018-03-27T00:28:19.362Z,41.40
2018-03-27T00:29:19.388Z,41.50
2018-03-27T00:30:19.335Z,38.30
2018-03-27T00:31:19.352Z,43.20
2018-03-27T00:32:19.392Z,41.40
2018-03-27T00:33:19.377Z,40.30
2018-03-27T00:34:19.396Z,40.80
2018-03-27T00:35:19.408Z,38.60
2018-03-27T00:36:19.422Z,43.20
2018-03-27T00:37:19.424Z,39.90
2018-03-27T00:38:19.470Z,40.70
2018-03-27T00:39:19.462Z,40.60
2018-03-27T00:40:19.464Z,41.50
2018-03-27T00:41:19.477Z,38.60
2018-03-27T00:42:19.526Z,41.40
2018-03-27T00:43:19.521Z,39.00
2018-03-27T00:44:19.510Z,36.80
2018-03-27T00:45:19.533Z,41.50
2018-03-27T00:46:19.594Z,37.60
2018-03-27T00:47:19.577Z,43.00
2018-03-27T00:48:19.574Z,38.20
2018-03-27T00:49:19.582Z,41.00
2018-03-27T00:50:19.647Z,38.30
2018-03-27T00:51:19.662Z,42.20
2018-03-27T00:52:19.625Z,43.70
2018-03-27T00:53:19.639Z,44.70
2018-03-27T00:54:19.655Z,42.20
2018-03-27T00:55:19.666Z,41.30
2018-03-27T00:56:19.685Z,39.00
2018-03-27T00:57:19.679Z,41.40
2018-03-27T00:58:19.715Z,41.60
2018-03-27T00:59:19.722Z,37.70
2018-03-27T01:00:19.755Z,38.50
2018-03-27T01:01:19.757Z,43.00
2018-03-27T01:02:19.754Z,39.60
2018-03-27T01:03:19.778Z,40.20
2018-03-27T01:04:19.778Z,42.40
2018-03-27T01:05:19.795Z,38.10
2018-03-27T01:06:19.802Z,36.80
2018-03-27T01:07:19.813Z,44.80
2018-03-27T01:08:19.874Z,40.30
2018-03-27T01:09:19.838Z,38.70
2018-03-27T01:10:19.851Z,41.80
2018-03-27T01:11:19.869Z,42.50
2018-03-27T01:12:19.875Z,40.80
2018-03-27T01:13:19.890Z,45.40
2018-03-27T01:14:19.910Z,38.90
2018-03-27T01:15:19.932Z,42.90
2018-03-27T01:16:19.931Z,39.90
2018-03-27T01:17:19.944Z,39.00
2018-03-27T01:18:19.955Z,40.40
2018-03-27T01:19:19.966Z,40.30
2018-03-27T01:20:19.983Z,43.30
2018-03-27T01:21:20.005Z,40.60
2018-03-27T01:22:20.036Z,44.10
2018-03-27T01:23:20.051Z,44.80
2018-03-27T01:24:20.036Z,45.60
2018-03-27T01:25:20.044Z,42.90
2018-03-27T01:26:20.068Z,43.60
2018-03-27T01:27:20.083Z,43.20
2018-03-27T01:28:20.082Z,44.70
2018-03-27T01:29:20.104Z,43.40
2018-03-27T01:30:20.107Z,42.40
2018-03-27T01:31:20.130Z,41.60
2018-03-27T01:32:20.141Z,46.30
2018-03-27T01:33:20.154Z,46.30
2018-03-27T01:34:20.179Z,43.90
2018-03-27T01:35:20.176Z,43.10
2018-03-27T01:36:20.195Z,45.40
2018-03-27T01:37:20.196Z,45.60
2018-03-27T01:38:20.217Z,49.80
2018-03-27T01:39:20.242Z,47.80
2018-03-27T01:40:20.242Z,41.70
2018-03-27T01:41:20.255Z,43.60
2018-03-27T01:42:20.275Z,43.20
2018-03-27T01:43:20.271Z,43.50
2018-03-27T01:44:20.293Z,43.60
2018-03-27T01:45:20.329Z,47.20
2018-03-27T01:46:20.356Z,41.60
2018-03-27T01:47:20.330Z,42.50
2018-03-27T01:48:20.379Z,43.80
2018-03-27T01:49:20.349Z,43.80
2018-03-27T01:50:20.381Z,44.70
2018-03-27T01:51:20.390Z,49.20
2018-03-27T01:52:20.405Z,45.10
2018-03-27T01:53:20.443Z,40.60
2018-03-27T01:54:20.436Z,41.90
2018-03-27T01:55:20.433Z,42.20
2018-03-27T01:56:20.470Z,39.20
2018-03-27T01:57:20.471Z,37.90
2018-03-27T01:58:20.488Z,39.70
2018-03-27T01:59:20.483Z,45.50
2018-03-27T02:00:20.509Z,42.30
2018-03-27T02:01:20.507Z,40.20
2018-03-27T02:02:20.518Z,46.20
2018-03-27T02:03:20.538Z,43.60
2018-03-27T02:04:20.557Z,42.50
2018-03-27T02:05:20.566Z,40.00
2018-03-27T02:06:20.579Z,40.50
2018-03-27T02:07:20.592Z,38.70
2018-03-27T02:08:20.606Z,43.70
2018-03-27T02:09:20.636Z,42.90
2018-03-27T02:10:20.652Z,42.80
2018-03-27T02:11:20.649Z,42.00
2018-03-27T02:12:20.668Z,43.30
2018-03-27T02:13:20.696Z,41.20
2018-03-27T02:14:20.681Z,43.70
2018-03-27T02:15:20.690Z,41.60
2018-03-27T02:16:20.715Z,42.00
2018-03-27T02:17:20.719Z,41.00
2018-03-27T02:18:20.734Z,46.50
2018-03-27T02:19:20.755Z,46.70
2018-03-27T02:20:20.769Z,45.60
2018-03-27T02:21:20.782Z,44.40
2018-03-27T02:22:20.785Z,45.10
2018-03-27T02:23:20.794Z,44.80
2018-03-27T02:24:20.847Z,45.70
2018-03-27T02:25:20.831Z,46.50
2018-03-27T02:26:20.843Z,48.30
2018-03-27T02:27:20.857Z,49.90
2018-03-27T02:28:20.934Z,47.90
2018-03-27T02:29:20.870Z,46.30
2018-03-27T02:30:20.891Z,42.90
2018-03-27T02:31:20.898Z,48.00
2018-03-27T02:32:20.915Z,43.40
2018-03-27T02:33:20.930Z,43.80
2018-03-27T02:34:20.938Z,44.70
2018-03-27T02:35:20.959Z,45.10
2018-03-27T02:36:20.976Z,43.20
2018-03-27T02:37:20.985Z,41.70
2018-03-27T02:38:20.992Z,42.60
2018-03-27T02:39:21.031Z,44.90
2018-03-27T02:40:21.023Z,47.30
2018-03-27T02:41:21.026Z,46.40
2018-03-27T02:42:21.053Z,53.30
2018-03-27T02:43:21.054Z,45.50
2018-03-27T02:44:21.106Z,43.80
2018-03-27T02:45:21.082Z,44.30
2018-03-27T02:46:21.112Z,43.90
2018-03-27T02:47:21.123Z,44.60
2018-03-27T02:48:21.182Z,40.00
2018-03-27T02:49:21.139Z,47.80
2018-03-27T02:50:21.164Z,45.50
2018-03-27T02:51:21.185Z,44.50
2018-03-27T02:52:21.172Z,42.70
2018-03-27T02:53:21.181Z,41.90
2018-03-27T02:54:21.213Z,46.70
2018-03-27T02:55:21.203Z,43.50
2018-03-27T02:56:21.220Z,45.10
2018-03-27T02:57:21.240Z,44.80
2018-03-27T02:58:21.279Z,48.80
2018-03-27T02:59:21.262Z,51.10
2018-03-27T03:00:21.285Z,52.00
2018-03-27T03:01:21.288Z,53.20
2018-03-27T03:02:21.317Z,48.20
2018-03-27T03:03:21.327Z,49.30
2018-03-27T03:04:21.327Z,52.50
2018-03-27T03:05:21.349Z,49.70
2018-03-27T03:06:21.362Z,46.20
2018-03-27T03:07:21.366Z,48.80
2018-03-27T03:08:21.382Z,45.60
2018-03-27T03:09:21.398Z,42.80
2018-03-27T03:10:21.407Z,45.00
2018-03-27T03:11:21.412Z,47.20
2018-03-27T03:12:21.460Z,44.80
2018-03-27T03:13:21.465Z,44.50
2018-03-27T03:14:21.463Z,48.50
2018-03-27T03:15:21.484Z,44.80
2018-03-27T03:16:21.486Z,48.40
2018-03-27T03:17:21.531Z,47.70
2018-03-27T03:18:21.534Z,51.20
2018-03-27T03:19:21.553Z,51.80
2018-03-27T03:20:21.554Z,52.60
2018-03-27T03:21:21.560Z,51.30
2018-03-27T03:22:21.599Z,57.90
2018-03-27T03:23:21.596Z,50.20
2018-03-27T03:24:21.612Z,53.60
2018-03-27T03:25:21.606Z,50.00
2018-03-27T03:26:21.627Z,50.70
2018-03-27T03:27:21.639Z,51.30
2018-03-27T03:28:21.698Z,56.30
2018-03-27T03:29:21.653Z,55.30
2018-03-27T03:30:21.698Z,53.40
2018-03-27T03:31:21.702Z,51.40
2018-03-27T03:32:21.702Z,49.10
2018-03-27T03:33:21.705Z,54.90
2018-03-27T03:34:21.737Z,57.60
2018-03-27T03:35:21.733Z,51.00
2018-03-27T03:36:21.741Z,53.10
2018-03-27T03:37:21.794Z,60.00
2018-03-27T03:38:21.774Z,57.30
2018-03-27T03:39:21.786Z,57.30
2018-03-27T03:40:21.793Z,53.20
2018-03-27T03:41:21.811Z,56.10
2018-03-27T03:42:21.845Z,53.30
2018-03-27T03:43:21.856Z,55.40
2018-03-27T03:44:21.869Z,54.90
2018-03-27T03:45:21.885Z,54.50
2018-03-27T03:46:21.871Z,54.90
2018-03-27T03:47:21.904Z,53.60
2018-03-27T03:48:21.895Z,54.90
2018-03-27T03:49:21.926Z,54.80
2018-03-27T03:50:21.982Z,52.50
2018-03-27T03:51:21.932Z,53.80
2018-03-27T03:52:21.956Z,51.90
2018-03-27T03:53:21.959Z,55.90
2018-03-27T03:54:21.971Z,48.90
2018-03-27T03:55:21.987Z,54.30
2018-03-27T03:56:22.010Z,55.70
2018-03-27T03:57:22.036Z,57.00
2018-03-27T03:58:22.023Z,53.20
2018-03-27T03:59:22.069Z,51.50
2018-03-27T04:00:22.063Z,50.10
2018-03-27T04:01:22.102Z,49.40
2018-03-27T04:02:22.111Z,55.00
2018-03-27T04:03:22.137Z,52.40
2018-03-27T04:04:22.110Z,59.70
2018-03-27T04:05:22.117Z,58.10
2018-03-27T04:06:22.134Z,56.10
2018-03-27T04:07:22.190Z,51.60
2018-03-27T04:08:22.160Z,54.90
2018-03-27T04:09:22.193Z,53.40
2018-03-27T04:10:22.199Z,54.30
2018-03-27T04:11:22.291Z,53.30
2018-03-27T04:12:22.266Z,57.50
2018-03-27T04:13:22.249Z,51.70
2018-03-27T04:14:22.231Z,59.50
2018-03-27T04:15:22.255Z,59.90
2018-03-27T04:16:22.258Z,57.50
2018-03-27T04:17:22.315Z,55.60
2018-03-27T04:18:22.328Z,56.50
2018-03-27T04:19:22.293Z,52.90
2018-03-27T04:20:22.333Z,55.10
2018-03-27T04:21:22.355Z,56.50
2018-03-27T04:22:22.342Z,64.30
2018-03-27T04:23:22.356Z,55.50
2018-03-27T04:24:22.365Z,58.10
2018-03-27T04:25:22.388Z,61.50
2018-03-27T04:26:22.394Z,61.00
2018-03-27T04:27:22.413Z,54.30
2018-03-27T04:28:22.408Z,62.10
2018-03-27T04:29:22.542Z,63.60
2018-03-27T04:30:22.464Z,67.20
2018-03-27T04:31:22.476Z,69.20
2018-03-27T04:32:22.468Z,62.80
2018-03-27T04:33:22.492Z,72.10
2018-03-27T04:34:22.510Z,64.30
2018-03-27T04:35:22.594Z,69.00
2018-03-27T04:36:22.517Z,73.10
2018-03-27T04:37:22.524Z,71.10
2018-03-27T04:38:22.555Z,62.00
2018-03-27T04:39:22.564Z,59.50
2018-03-27T04:40:22.573Z,56.00
2018-03-27T04:41:22.582Z,59.00
2018-03-27T04:42:22.592Z,62.20
2018-03-27T04:43:22.620Z,58.10
2018-03-27T04:44:22.643Z,60.30
2018-03-27T04:45:22.642Z,57.30
2018-03-27T04:46:22.658Z,60.20
2018-03-27T04:47:22.667Z,58.40
2018-03-27T04:48:22.662Z,54.30
2018-03-27T04:49:22.686Z,56.40
2018-03-27T04:50:22.693Z,58.40
2018-03-27T04:51:22.702Z,56.10
2018-03-27T04:52:22.715Z,56.30
2018-03-27T04:53:22.734Z,53.30
2018-03-27T04:54:22.739Z,57.30
2018-03-27T04:55:22.770Z,56.40
2018-03-27T04:56:22.785Z,60.10
2018-03-27T04:57:22.818Z,55.80
2018-03-27T04:58:22.811Z,53.50
2018-03-27T04:59:22.812Z,55.90
2018-03-27T05:00:22.814Z,55.80
2018-03-27T05:01:22.829Z,53.80
2018-03-27T05:02:22.865Z,55.90
2018-03-27T05:03:22.861Z,57.40
2018-03-27T05:04:22.898Z,56.50
2018-03-27T05:05:22.887Z,56.10
2018-03-27T05:06:22.896Z,57.90
2018-03-27T05:07:22.906Z,60.20
2018-03-27T05:08:22.977Z,55.90
2018-03-27T05:09:22.936Z,53.70
2018-03-27T05:10:22.951Z,55.10
2018-03-27T05:11:22.981Z,56.30
2018-03-27T05:12:23.043Z,59.30
2018-03-27T05:13:23.048Z,54.20
2018-03-27T05:14:22.996Z,57.30
2018-03-27T05:15:23.017Z,55.40
2018-03-27T05:16:23.020Z,54.40
2018-03-27T05:17:23.034Z,57.60
2018-03-27T05:18:23.040Z,48.80
2018-03-27T05:19:23.069Z,55.80
2018-03-27T05:20:23.062Z,55.10
2018-03-27T05:21:23.081Z,54.20
2018-03-27T05:22:23.117Z,51.40
2018-03-27T05:23:23.127Z,59.60
2018-03-27T05:24:23.123Z,56.50
2018-03-27T05:25:23.128Z,59.70
2018-03-27T05:26:23.141Z,54.40
2018-03-27T05:27:23.191Z,54.20
2018-03-27T05:28:23.215Z,56.20
2018-03-27T05:29:23.192Z,54.60
2018-03-27T05:30:23.194Z,54.30
2018-03-27T05:31:23.206Z,57.10
2018-03-27T05:32:23.220Z,56.70
2018-03-27T05:33:23.251Z,58.20
2018-03-27T05:34:23.288Z,55.30
2018-03-27T05:35:23.269Z,52.00
2018-03-27T05:36:23.285Z,56.10
2018-03-27T05:37:23.300Z,53.50
2018-03-27T05:38:23.292Z,56.30
2018-03-27T05:39:23.312Z,57.60
2018-03-27T05:40:23.385Z,56.90
2018-03-27T05:41:23.338Z,56.40
2018-03-27T05:42:23.396Z,59.90
2018-03-27T05:43:23.397Z,55.80
2018-03-27T05:44:23.378Z,61.00
2018-03-27T05:45:23.402Z,57.20
2018-03-27T05:46:23.425Z,57.30
2018-03-27T05:47:23.416Z,55.10
2018-03-27T05:48:23.437Z,59.30
2018-03-27T05:49:23.442Z,53.50
2018-03-27T05:50:23.474Z,56.40
2018-03-27T05:51:23.467Z,52.30
2018-03-27T05:52:23.484Z,55.40
2018-03-27T05:53:23.525Z,51.90
2018-03-27T05:54:23.505Z,50.70
2018-03-27T05:55:23.558Z,56.30
2018-03-27T05:56:23.539Z,55.60
2018-03-27T05:57:23.575Z,51.20
2018-03-27T05:58:23.574Z,53.30
2018-03-27T05:59:23.584Z,54.00
2018-03-27T06:00:23.595Z,54.40
2018-03-27T06:01:23.594Z,59.30
2018-03-27T06:02:23.612Z,60.00
2018-03-27T06:03:23.635Z,61.30
2018-03-27T06:04:23.644Z,60.10
2018-03-27T06:05:23.662Z,55.30
2018-03-27T06:06:23.660Z,55.10
2018-03-27T06:07:23.690Z,52.90
2018-03-27T06:08:23.689Z,53.60
2018-03-27T06:09:23.707Z,51.20
2018-03-27T06:10:23.722Z,55.00
2018-03-27T06:11:23.749Z,56.30
2018-03-27T06:12:23.773Z,56.40
2018-03-27T06:13:23.762Z,53.60
2018-03-27T06:14:23.768Z,53.10
2018-03-27T06:15:23.784Z,59.30
2018-03-27T06:16:23.799Z,54.70
2018-03-27T06:17:23.818Z,55.50
2018-03-27T06:18:23.873Z,54.60
2018-03-27T06:19:23.849Z,56.70
2018-03-27T06:20:23.853Z,57.90
2018-03-27T06:21:23.865Z,57.80
2018-03-27T06:22:23.893Z,60.00
2018-03-27T06:23:23.884Z,56.20
2018-03-27T06:24:23.897Z,55.80
2018-03-27T06:25:23.939Z,57.30
2018-03-27T06:26:23.932Z,53.20
2018-03-27T06:27:23.943Z,54.40
2018-03-27T06:28:23.992Z,60.40
2018-03-27T06:29:23.977Z,54.50
2018-03-27T06:30:24.023Z,57.40
2018-03-27T06:31:23.994Z,57.40
2018-03-27T06:32:24.020Z,50.60
2018-03-27T06:33:24.024Z,54.70
2018-03-27T06:34:24.036Z,58.60
2018-03-27T06:35:24.060Z,51.10
2018-03-27T06:36:24.062Z,52.50
2018-03-27T06:37:24.087Z,51.30
2018-03-27T06:38:24.086Z,54.30
2018-03-27T06:39:24.109Z,55.50
2018-03-27T06:40:24.122Z,53.80
2018-03-27T06:41:24.124Z,55.40
2018-03-27T06:42:24.174Z,62.40
2018-03-27T06:43:24.187Z,55.70
2018-03-27T06:44:24.168Z,59.60
2018-03-27T06:45:24.218Z,57.10
2018-03-27T06:46:24.221Z,55.50
2018-03-27T06:47:24.226Z,57.90
2018-03-27T06:48:24.240Z,56.40
2018-03-27T06:49:24.240Z,55.50
2018-03-27T06:50:24.253Z,59.00
2018-03-27T06:51:24.261Z,56.50
2018-03-27T06:52:24.319Z,53.80
2018-03-27T06:53:24.292Z,54.60
2018-03-27T06:54:24.316Z,59.00
2018-03-27T06:55:24.325Z,63.60
2018-03-27T06:56:24.335Z,56.50
2018-03-27T06:57:24.345Z,61.50
2018-03-27T06:58:24.367Z,56.80
2018-03-27T06:59:24.380Z,57.20
2018-03-27T07:00:24.397Z,59.50
2018-03-27T07:01:24.413Z,59.20
2018-03-27T07:02:24.450Z,56.40
2018-03-27T07:03:24.445Z,62.00
2018-03-27T07:04:24.453Z,59.30
2018-03-27T07:05:24.549Z,54.90
2018-03-27T07:06:24.470Z,58.50
2018-03-27T07:07:24.503Z,60.80
2018-03-27T07:08:24.525Z,59.50
2018-03-27T07:09:24.540Z,58.50
2018-03-27T07:10:24.542Z,57.80
2018-03-27T07:11:24.557Z,57.60
2018-03-27T07:12:24.610Z,57.80
2018-03-27T07:13:24.591Z,60.20
2018-03-27T07:14:24.602Z,66.80
2018-03-27T07:15:24.624Z,59.60
2018-03-27T07:16:24.616Z,64.00
2018-03-27T07:17:24.638Z,60.60
2018-03-27T07:18:24.658Z,59.90
2018-03-27T07:19:24.664Z,61.10
2018-03-27T07:20:24.677Z,66.30
2018-03-27T07:21:24.694Z,63.50
2018-03-27T07:22:24.717Z,57.20
2018-03-27T07:23:24.715Z,64.30
2018-03-27T07:24:24.765Z,60.10
2018-03-27T07:25:24.739Z,59.40
2018-03-27T07:26:24.780Z,60.40
2018-03-27T07:27:24.788Z,60.90
2018-03-27T07:28:24.822Z,62.40
2018-03-27T07:29:24.806Z,58.50
2018-03-27T07:30:24.828Z,68.10
2018-03-27T07:31:24.835Z,63.20
2018-03-27T07:32:24.863Z,63.70
2018-03-27T07:33:24.889Z,57.90
2018-03-27T07:34:24.874Z,68.60
2018-03-27T07:35:24.888Z,61.10
2018-03-27T07:36:24.921Z,62.40
2018-03-27T07:37:24.929Z,64.80
2018-03-27T07:38:24.944Z,67.00
2018-03-27T07:39:24.956Z,71.50
2018-03-27T07:40:24.962Z,72.40
2018-03-27T07:41:25.008Z,73.00
2018-03-27T07:42:24.986Z,67.40
2018-03-27T07:43:25.013Z,68.90
2018-03-27T07:44:25.057Z,60.90
2018-03-27T07:45:25.049Z,68.90
2018-03-27T07:46:25.068Z,61.70
2018-03-27T07:47:25.151Z,61.30
2018-03-27T07:48:25.083Z,60.30
2018-03-27T07:49:25.097Z,63.90
2018-03-27T07:50:25.118Z,62.70
2018-03-27T07:51:25.126Z,64.20
2018-03-27T07:52:25.141Z,64.80
2018-03-27T07:53:25.247Z,83.30
2018-03-27T07:54:25.172Z,68.50
2018-03-27T07:55:25.194Z,64.20
2018-03-27T07:56:25.199Z,68.50
2018-03-27T07:57:25.213Z,62.00
2018-03-27T07:58:25.217Z,65.20
2018-03-27T07:59:25.246Z,60.70
2018-03-27T08:00:25.254Z,65.70
2018-03-27T08:01:25.273Z,69.60
2018-03-27T08:02:25.283Z,64.90
2018-03-27T08:03:25.297Z,65.10
2018-03-27T08:04:25.332Z,66.40
2018-03-27T08:05:25.342Z,68.50
2018-03-27T08:06:25.347Z,64.70
2018-03-27T08:07:25.358Z,76.60
2018-03-27T08:08:25.376Z,68.00
2018-03-27T08:09:25.394Z,65.30
2018-03-27T08:10:25.401Z,65.60
2018-03-27T08:11:25.416Z,66.80
2018-03-27T08:12:25.453Z,61.60
2018-03-27T08:13:25.443Z,69.70
2018-03-27T08:14:25.471Z,65.80
2018-03-27T08:15:25.475Z,64.40
2018-03-27T08:16:25.500Z,61.90
2018-03-27T08:17:25.521Z,61.80
2018-03-27T08:18:25.522Z,64.60
2018-03-27T08:19:25.569Z,61.00
2018-03-27T08:20:25.613Z,60.60
2018-03-27T08:21:25.575Z,60.40
2018-03-27T08:22:25.598Z,55.50
2018-03-27T08:23:25.630Z,58.10
2018-03-27T08:24:25.641Z,55.90
2018-03-27T08:25:25.653Z,53.90
2018-03-27T08:26:25.651Z,56.90
2018-03-27T08:27:25.673Z,57.20
2018-03-27T08:28:25.693Z,55.40
2018-03-27T08:29:25.794Z,59.00
2018-03-27T08:30:25.771Z,54.10
2018-03-27T08:31:25.742Z,54.10
2018-03-27T08:32:25.764Z,51.00
2018-03-27T08:33:25.785Z,49.70
2018-03-27T08:34:25.800Z,49.60
2018-03-27T08:35:25.818Z,48.30
2018-03-27T08:36:25.955Z,47.10
2018-03-27T08:37:25.867Z,50.90
2018-03-27T08:38:25.870Z,49.50
2018-03-27T08:39:25.890Z,49.20
2018-03-27T08:40:25.966Z,50.20
2018-03-27T08:41:25.926Z,46.20
2018-03-27T08:42:25.966Z,48.70
2018-03-27T08:43:26.000Z,50.50
2018-03-27T08:44:25.985Z,51.80
2018-03-27T08:45:25.994Z,52.50
2018-03-27T08:46:26.020Z,47.60
2018-03-27T08:47:26.030Z,48.60
2018-03-27T08:48:26.049Z,48.20
2018-03-27T08:49:26.081Z,47.60
2018-03-27T08:50:26.099Z,46.50
2018-03-27T08:51:26.105Z,51.70
2018-03-27T08:52:26.135Z,49.40
2018-03-27T08:53:26.142Z,46.20
2018-03-27T08:54:26.183Z,46.50
2018-03-27T08:55:26.178Z,47.00
2018-03-27T08:56:26.201Z,49.10
2018-03-27T08:57:26.219Z,51.30
2018-03-27T08:58:26.263Z,43.70
2018-03-27T08:59:26.269Z,47.00
2018-03-27T09:00:26.322Z,50.70
2018-03-27T09:01:26.340Z,45.80
2018-03-27T09:02:26.296Z,46.30
2018-03-27T09:03:26.331Z,46.70
2018-03-27T09:04:26.363Z,50.60
2018-03-27T09:05:26.377Z,46.90
2018-03-27T09:06:26.394Z,49.00
2018-03-27T09:07:26.410Z,50.00
2018-03-27T09:08:26.427Z,47.40
2018-03-27T09:09:26.439Z,49.70
2018-03-27T09:10:26.461Z,54.20
2018-03-27T09:11:26.464Z,50.30
2018-03-27T09:12:26.494Z,47.30
2018-03-27T09:13:26.585Z,45.70
2018-03-27T09:14:26.513Z,50.00
2018-03-27T09:15:26.541Z,47.40
2018-03-27T09:16:26.555Z,47.10
2018-03-27T09:17:26.579Z,46.00
2018-03-27T09:18:26.585Z,46.40
2018-03-27T09:19:26.603Z,44.80
2018-03-27T09:20:26.624Z,45.30
2018-03-27T09:21:26.649Z,46.30
2018-03-27T09:22:26.666Z,44.10
2018-03-27T09:23:26.687Z,41.40
2018-03-27T09:24:26.701Z,44.70
2018-03-27T09:25:26.711Z,39.50
2018-03-27T09:26:26.754Z,40.20
2018-03-27T09:27:26.743Z,43.30
2018-03-27T09:28:26.752Z,42.00
2018-03-27T09:29:26.772Z,43.20
2018-03-27T09:30:26.811Z,41.30
2018-03-27T09:31:26.820Z,38.50
2018-03-27T09:32:26.826Z,40.80
2018-03-27T09:33:26.873Z,38.60
2018-03-27T09:34:26.873Z,40.10
2018-03-27T09:35:26.903Z,39.20
2018-03-27T09:36:26.900Z,38.70
2018-03-27T09:37:26.936Z,38.50
2018-03-27T09:38:26.940Z,35.80
2018-03-27T09:39:26.967Z,40.80
2018-03-27T09:40:26.991Z,41.80
2018-03-27T09:41:26.995Z,36.00
2018-03-27T09:42:27.036Z,36.40
2018-03-27T09:43:27.029Z,37.80
2018-03-27T09:44:27.041Z,35.80
2018-03-27T09:45:27.064Z,39.30
2018-03-27T09:46:27.110Z,36.60
2018-03-27T09:47:27.121Z,36.70
2018-03-27T09:48:27.110Z,35.50
2018-03-27T09:49:27.144Z,33.20
2018-03-27T09:50:27.163Z,35.70
2018-03-27T09:51:27.179Z,38.60
2018-03-27T09:52:27.227Z,40.30
2018-03-27T09:53:27.204Z,41.70
2018-03-27T09:54:27.287Z,37.40
2018-03-27T09:55:27.254Z,37.20
2018-03-27T09:56:27.283Z,35.40
2018-03-27T09:57:27.298Z,37.80
2018-03-27T09:58:27.384Z,38.40
2018-03-27T09:59:27.454Z,37.40
2018-03-27T10:00:27.337Z,38.80
2018-03-27T10:01:27.382Z,42.70
2018-03-27T10:02:27.374Z,36.40
2018-03-27T10:03:27.397Z,41.60
2018-03-27T10:04:27.403Z,41.10
2018-03-27T10:05:27.434Z,43.70
2018-03-27T10:06:27.443Z,40.70
2018-03-27T10:07:27.467Z,33.90
2018-03-27T10:08:27.471Z,35.70
2018-03-27T10:09:27.493Z,43.70
2018-03-27T10:10:27.519Z,33.90
2018-03-27T10:11:27.539Z,30.80
2018-03-27T10:12:27.559Z,27.50
2018-03-27T10:13:27.574Z,33.80
2018-03-27T10:14:27.593Z,29.00
2018-03-27T10:15:27.607Z,24.80
2018-03-27T10:16:27.631Z,23.80
2018-03-27T10:17:27.631Z,22.90
2018-03-27T10:18:27.686Z,24.20
2018-03-27T10:19:27.691Z,26.20
2018-03-27T10:20:27.714Z,23.60
2018-03-27T10:21:27.718Z,26.70
2018-03-27T10:22:27.738Z,27.90
2018-03-27T10:23:27.752Z,27.80
2018-03-27T10:24:27.770Z,32.60
2018-03-27T10:25:27.778Z,29.00
2018-03-27T10:26:27.794Z,28.10
2018-03-27T10:27:27.828Z,33.40
2018-03-27T10:28:27.895Z,31.30
2018-03-27T10:29:27.849Z,30.40
2018-03-27T10:30:27.881Z,32.70
2018-03-27T10:31:27.889Z,30.00
2018-03-27T10:32:27.911Z,29.90
2018-03-27T10:33:27.918Z,30.80
2018-03-27T10:34:27.941Z,28.80
2018-03-27T10:35:28.060Z,26.90
2018-03-27T10:36:27.974Z,22.30
2018-03-27T10:37:28.003Z,24.00
2018-03-27T10:38:28.059Z,24.10
2018-03-27T10:39:28.025Z,21.90
2018-03-27T10:40:28.060Z,20.90
2018-03-27T10:41:28.063Z,22.90
2018-03-27T10:42:28.126Z,23.10
2018-03-27T10:43:28.097Z,24.50
2018-03-27T10:44:28.123Z,25.70
2018-03-27T10:45:28.156Z,27.10
2018-03-27T10:46:28.162Z,26.60
2018-03-27T10:47:28.212Z,26.80
2018-03-27T10:48:28.223Z,28.40
2018-03-27T10:49:28.229Z,27.60
2018-03-27T10:50:28.278Z,26.40
2018-03-27T10:51:28.247Z,26.50
2018-03-27T10:52:28.262Z,28.70
2018-03-27T10:53:28.550Z,31.10
2018-03-27T10:54:28.302Z,27.30
2018-03-27T10:55:28.373Z,31.00
2018-03-27T10:56:28.365Z,27.90
2018-03-27T10:57:28.367Z,25.50
2018-03-27T10:58:28.390Z,23.80
2018-03-27T10:59:28.401Z,24.30
2018-03-27T11:00:28.463Z,25.40
2018-03-27T11:01:28.430Z,25.00
2018-03-27T11:02:28.459Z,25.00
2018-03-27T11:03:28.477Z,26.80
2018-03-27T11:04:28.494Z,27.70
2018-03-27T11:05:28.550Z,28.90
2018-03-27T11:06:28.528Z,26.00
2018-03-27T11:07:28.544Z,22.30
2018-03-27T11:08:28.619Z,25.30
2018-03-27T11:09:28.590Z,25.20
2018-03-27T11:10:28.599Z,25.90
2018-03-27T11:11:28.654Z,23.90
2018-03-27T11:12:28.629Z,28.40
2018-03-27T11:13:28.653Z,25.20
2018-03-27T11:14:28.688Z,23.80
2018-03-27T11:15:28.721Z,23.00
2018-03-27T11:16:28.706Z,22.70
2018-03-27T11:17:28.766Z,26.30
2018-03-27T11:18:28.767Z,20.00
2018-03-27T11:19:28.758Z,23.40
2018-03-27T11:20:28.790Z,23.80
2018-03-27T11:21:28.821Z,23.20
2018-03-27T11:22:28.838Z,26.50
2018-03-27T11:23:28.899Z,22.60
2018-03-27T11:24:28.851Z,22.90
2018-03-27T11:25:28.886Z,25.80
2018-03-27T11:26:28.900Z,26.10
2018-03-27T11:27:28.901Z,23.70
2018-03-27T11:28:28.985Z,23.30
2018-03-27T11:29:28.984Z,22.00
2018-03-27T11:30:28.973Z,22.90
2018-03-27T11:31:28.989Z,23.30
2018-03-27T11:32:29.004Z,20.60
2018-03-27T11:33:29.025Z,19.10
2018-03-27T11:34:29.033Z,22.30
2018-03-27T11:35:29.076Z,18.90
2018-03-27T11:36:29.072Z,19.40
2018-03-27T11:37:29.110Z,17.40
2018-03-27T11:38:29.118Z,21.20
2018-03-27T11:39:29.136Z,23.40
2018-03-27T11:40:29.149Z,24.20
2018-03-27T11:41:29.204Z,25.00
2018-03-27T11:42:29.189Z,23.20
2018-03-27T11:43:29.194Z,23.10
2018-03-27T11:44:29.219Z,22.50
2018-03-27T11:45:29.247Z,26.30
2018-03-27T11:46:29.271Z,25.80
2018-03-27T11:47:29.281Z,25.50
2018-03-27T11:48:29.293Z,22.30
2018-03-27T11:49:29.329Z,24.90
2018-03-27T11:50:29.343Z,20.90
2018-03-27T11:51:29.405Z,21.60
2018-03-27T11:52:29.364Z,25.50
2018-03-27T11:53:29.409Z,24.80
2018-03-27T11:54:29.392Z,23.20
2018-03-27T11:55:29.413Z,22.70
2018-03-27T11:56:29.435Z,25.20
2018-03-27T11:57:29.471Z,23.70
2018-03-27T11:58:29.463Z,28.60
2018-03-27T11:59:29.488Z,27.00
2018-03-27T12:00:29.506Z,27.70
2018-03-27T12:01:29.534Z,26.70
2018-03-27T12:02:29.536Z,28.50
2018-03-27T12:03:29.562Z,30.70
2018-03-27T12:04:29.571Z,29.10
2018-03-27T12:05:29.590Z,30.60
2018-03-27T12:06:29.605Z,30.60
2018-03-27T12:07:29.656Z,31.00
2018-03-27T12:08:29.649Z,29.40
2018-03-27T12:09:29.674Z,32.30
2018-03-27T12:10:29.700Z,32.50
2018-03-27T12:11:29.695Z,33.90
2018-03-27T12:12:29.739Z,34.80
2018-03-27T12:13:29.743Z,31.80
2018-03-27T12:14:29.774Z,37.80
2018-03-27T12:15:29.764Z,33.60
2018-03-27T12:16:29.778Z,34.40
2018-03-27T12:17:29.799Z,35.40
2018-03-27T12:18:29.841Z,35.60
2018-03-27T12:19:29.920Z,32.90
2018-03-27T12:20:29.870Z,32.00
2018-03-27T12:21:29.910Z,32.50
2018-03-27T12:22:29.898Z,32.40
2018-03-27T12:23:29.931Z,32.10
2018-03-27T12:24:29.962Z,33.30
2018-03-27T12:25:29.951Z,31.20
2018-03-27T12:26:29.984Z,29.00
2018-03-27T12:27:29.985Z,37.70
2018-03-27T12:28:29.996Z,32.30
2018-03-27T12:29:30.066Z,28.70
2018-03-27T12:30:30.102Z,34.20
2018-03-27T12:31:30.081Z,28.00
2018-03-27T12:32:30.073Z,31.30
2018-03-27T12:33:30.138Z,25.60
2018-03-27T12:34:30.111Z,29.90
2018-03-27T12:35:30.122Z,30.60
2018-03-27T12:36:30.173Z,27.60
2018-03-27T12:37:30.175Z,30.00
2018-03-27T12:38:30.179Z,26.80
2018-03-27T12:39:30.213Z,28.00
2018-03-27T12:40:30.213Z,30.10
2018-03-27T12:41:30.235Z,27.00
2018-03-27T12:42:30.250Z,31.50
2018-03-27T12:43:30.328Z,29.90
2018-03-27T12:44:30.314Z,31.40
2018-03-27T12:45:30.468Z,25.90
2018-03-27T12:46:30.319Z,28.40
2018-03-27T12:47:30.380Z,27.40
2018-03-27T12:48:30.360Z,29.00
2018-03-27T12:49:30.447Z,27.40
2018-03-27T12:50:30.395Z,29.00
2018-03-27T12:51:30.424Z,27.40
2018-03-27T12:52:30.430Z,25.70